WXForecasting.com
Aberdeen, SD - Weather Station Data
Daily Summary for March 13, 2018 Units:  Metric    English   Both
Next Day »
Daily Weekly Monthly Yearly Custom
  High: Low: Average:
Temperature: 2.8 °C -11.1 °C -3.6 °C
Dew Point: -3.9 °C -13.3 °C -7.7 °C
Humidity: 87% 54% 74%
Wind Speed: 11.3km/h 0km/h 3.4km/h
Wind Gust: 16.1km/h - -
Wind- - WSW
Pressure: 1033.1 hPa 1021.9 hPa -
Precipitation: 0 mm    
Historical Graphs
 
 
Tabular Data for March 13, 2018
Time Temperature Dew Point Pressure Wind Wind Speed Wind Gust Humidity Rainfall Rate (Hourly) solar Conditions
00:10 -6 °C -8.3 °C 1032.7 hPa North 3.2 km/h 9.7 km/h 82% 0 mm 0 W/m2
00:25 -6.4 °C -8.9 °C 1033.1 hPa North 3.2 km/h 6.4 km/h 81% 0 mm 0 W/m2
00:40 -6.6 °C -8.9 °C 1033.1 hPa North 6.4 km/h 9.7 km/h 82% 0 mm 0 W/m2
00:55 -6.7 °C -9.4 °C 1033.1 hPa North 3.2 km/h 8 km/h 82% 0 mm 0 W/m2
01:10 -6.8 °C -9.4 °C 1032.7 hPa North 1.6 km/h 6.4 km/h 82% 0 mm 0 W/m2
01:25 -7 °C -9.4 °C 1032.7 hPa North 4.8 km/h 6.4 km/h 82% 0 mm 0 W/m2
01:40 -7.2 °C -10 °C 1032.7 hPa North 1.6 km/h 4.8 km/h 81% 0 mm 0 W/m2
01:55 -7.6 °C -10 °C 1032.7 hPa North 1.6 km/h 6.4 km/h 81% 0 mm 0 W/m2
02:10 -7.9 °C -10.6 °C 1032.7 hPa North 3.2 km/h 4.8 km/h 81% 0 mm 0 W/m2
02:25 -8 °C -10.6 °C 1032.7 hPa North 3.2 km/h 4.8 km/h 82% 0 mm 0 W/m2
02:40 -8 °C -10.6 °C 1033.1 hPa North 1.6 km/h 8 km/h 82% 0 mm 0 W/m2
02:55 -8.3 °C -10.6 °C 1032.7 hPa North 3.2 km/h 6.4 km/h 82% 0 mm 0 W/m2
03:10 -8.6 °C -11.1 °C 1032.7 hPa North 1.6 km/h 8 km/h 82% 0 mm 0 W/m2
03:25 -8.7 °C -11.1 °C 1032.7 hPa North 4.8 km/h 8 km/h 83% 0 mm 0 W/m2
03:40 -8.7 °C -11.1 °C 1032.4 hPa North 1.6 km/h 8 km/h 82% 0 mm 0 W/m2
03:55 -8.9 °C -11.7 °C 1032.4 hPa North 3.2 km/h 6.4 km/h 82% 0 mm 0 W/m2
04:10 -8.9 °C -11.1 °C 1032.4 hPa North 3.2 km/h 4.8 km/h 83% 0 mm 0 W/m2
04:25 -8.9 °C -11.1 °C 1032.1 hPa North 4.8 km/h 6.4 km/h 83% 0 mm 0 W/m2
04:41 -9.2 °C -11.7 °C 1032.1 hPa Calm   4.8 km/h 82% 0 mm 0 W/m2
04:56 -9.3 °C -11.7 °C 1032.1 hPa North 3.2 km/h 4.8 km/h 83% 0 mm 0 W/m2
05:11 -9.3 °C -11.7 °C 1032.4 hPa North 1.6 km/h 3.2 km/h 83% 0 mm 0 W/m2
05:26 -9.3 °C -11.7 °C 1032.1 hPa Calm   4.8 km/h 83% 0 mm 0 W/m2
05:41 -9.4 °C -11.7 °C 1032.1 hPa Calm   3.2 km/h 83% 0 mm 0 W/m2
05:56 -9.6 °C -11.7 °C 1032.1 hPa Calm   1.6 km/h 83% 0 mm 0 W/m2
06:11 -9.5 °C -11.7 °C 1032.4 hPa North 1.6 km/h 3.2 km/h 84% 0 mm 0 W/m2
06:26 -9.7 °C -12.2 °C 1032.7 hPa Calm   3.2 km/h 83% 0 mm 0 W/m2
06:41 -10.2 °C -12.2 °C 1032.7 hPa Calm   1.6 km/h 83% 0 mm 0 W/m2
06:56 -10.3 °C -12.8 °C 1032.7 hPa North 1.6 km/h 3.2 km/h 83% 0 mm 0 W/m2
07:11 -10.4 °C -12.8 °C 1033.1 hPa Calm   3.2 km/h 83% 0 mm 0 W/m2
07:26 -10.6 °C -12.8 °C 1033.1 hPa Calm     83% 0 mm 0 W/m2
07:41 -10.9 °C -13.3 °C 1033.1 hPa Calm     83% 0 mm 0 W/m2
07:56 -11.1 °C -13.3 °C 1033.1 hPa Calm     83% 0 mm 7 W/m2
08:11 -11.1 °C -13.3 °C 1033.1 hPa Calm   1.6 km/h 84% 0 mm 14 W/m2
08:26 -10.9 °C -13.3 °C 1033.1 hPa Calm   3.2 km/h 84% 0 mm 21 W/m2
08:41 -10.3 °C -12.2 °C 1033.1 hPa Calm   1.6 km/h 85% 0 mm 26 W/m2
08:56 -9.8 °C -11.7 °C 1033.1 hPa Calm     85% 0 mm 125 W/m2
09:11 -8.1 °C -10 °C 1033.1 hPa Calm     87% 0 mm 243 W/m2
09:26 -6.3 °C -8.3 °C 1033.1 hPa Calm     85% 0 mm 272 W/m2
09:41 -4.8 °C -7.8 °C 1033.1 hPa Calm     80% 0 mm 323 W/m2
09:56 -3.2 °C -6.7 °C 1033.1 hPa Calm     76% 0 mm 369 W/m2
10:11 -2.6 °C -8.3 °C 1033.1 hPa North 1.6 km/h 4.8 km/h 66% 0 mm 406 W/m2
10:26 -3.2 °C -8.3 °C 1033.1 hPa Calm   4.8 km/h 67% 0 mm 448 W/m2
10:41 -3.7 °C -8.9 °C 1033.1 hPa North 3.2 km/h 6.4 km/h 69% 0 mm 487 W/m2
10:56 -4.1 °C -8.3 °C 1033.1 hPa North 4.8 km/h 6.4 km/h 71% 0 mm 526 W/m2
11:12 -3.7 °C -8.3 °C 1032.7 hPa North 3.2 km/h 6.4 km/h 70% 0 mm 563 W/m2
11:27 -3.1 °C -7.2 °C 1032.7 hPa Calm   4.8 km/h 72% 0 mm 598 W/m2
11:42 -2.6 °C -7.2 °C 1032.7 hPa NNW 4.8 km/h 6.4 km/h 71% 0 mm 619 W/m2
11:57 -2.3 °C -7.2 °C 1032.4 hPa NW 3.2 km/h 8 km/h 69% 0 mm 656 W/m2
12:12 -1.9 °C -6.7 °C 1032.4 hPa WNW 3.2 km/h 8 km/h 69% 0 mm 664 W/m2
12:27 -1.8 °C -6.7 °C 1032.4 hPa West 3.2 km/h 8 km/h 70% 0 mm 687 W/m2
12:42 -1.6 °C -6.7 °C 1032.1 hPa WSW 3.2 km/h 11.3 km/h 69% 0 mm 721 W/m2
12:57 -1.4 °C -6.1 °C 1032.1 hPa SW 3.2 km/h 11.3 km/h 70% 0 mm 677 W/m2
13:12 -1 °C -5.6 °C 1031.4 hPa SSW 8 km/h 9.7 km/h 70% 0 mm 694 W/m2
13:27 -0.4 °C -5.6 °C 1031.4 hPa South 1.6 km/h 11.3 km/h 69% 0 mm 722 W/m2
13:42 -0.1 °C -5 °C 1031 hPa SSW 4.8 km/h 9.7 km/h 69% 0 mm 719 W/m2
13:57 0.3 °C -5.6 °C 1030.7 hPa SSW 4.8 km/h 11.3 km/h 66% 0 mm 714 W/m2
14:12 0.5 °C -5.6 °C 1030.7 hPa SSW 4.8 km/h 9.7 km/h 64% 0 mm 707 W/m2
14:27 0.7 °C -6.1 °C 1030.4 hPa SSW 6.4 km/h 11.3 km/h 62% 0 mm 687 W/m2
14:42 1 °C -6.1 °C 1029.7 hPa South 8 km/h 12.9 km/h 59% 0 mm 700 W/m2
14:57 1.3 °C -5.6 °C 1029.7 hPa South 3.2 km/h 11.3 km/h 60% 0 mm 661 W/m2
15:12 1.6 °C -6.1 °C 1029.7 hPa SSW 8 km/h 12.9 km/h 57% 0 mm 649 W/m2
15:27 1.9 °C -5.6 °C 1029.3 hPa SW 1.6 km/h 9.7 km/h 58% 0 mm 657 W/m2
15:42 1.9 °C -5.6 °C 1029.3 hPa SSW 8 km/h 11.3 km/h 59% 0 mm 598 W/m2
15:57 2.1 °C -5 °C 1029 hPa SSW 6.4 km/h 12.9 km/h 59% 0 mm 573 W/m2
16:12 2.1 °C -5.6 °C 1028.7 hPa SSW 6.4 km/h 12.9 km/h 59% 0 mm 482 W/m2
16:27 1.9 °C -5 °C 1028.7 hPa SSW 11.3 km/h 12.9 km/h 61% 0 mm 487 W/m2
16:43 2.1 °C -5 °C 1028.3 hPa South 3.2 km/h 11.3 km/h 60% 0 mm 471 W/m2
16:58 2.3 °C -5 °C 1028 hPa South 8 km/h 14.5 km/h 60% 0 mm 439 W/m2
17:13 2.5 °C -4.4 °C 1027.7 hPa South 9.7 km/h 14.5 km/h 60% 0 mm 330 W/m2
17:28 2.6 °C -5.6 °C 1027.3 hPa South 8 km/h 14.5 km/h 56% 0 mm 311 W/m2
17:43 2.7 °C -6.1 °C 1027.3 hPa South 8 km/h 12.9 km/h 54% 0 mm 285 W/m2
17:58 2.8 °C -4.4 °C 1027 hPa South 4.8 km/h 11.3 km/h 59% 0 mm 251 W/m2
18:13 2.6 °C -5 °C 1027 hPa SSW 1.6 km/h 9.7 km/h 59% 0 mm 86 W/m2
18:28 2.4 °C -4.4 °C 1027 hPa SSW 8 km/h 11.3 km/h 61% 0 mm 74 W/m2
18:43 2.1 °C -3.9 °C 1026.6 hPa SSW 4.8 km/h 9.7 km/h 64% 0 mm 62 W/m2
18:58 1.8 °C -3.9 °C 1026.6 hPa SSW 8 km/h 12.9 km/h 67% 0 mm 40 W/m2
19:13 1.5 °C -3.9 °C 1026 hPa SSW 6.4 km/h 9.7 km/h 69% 0 mm 30 W/m2
19:28 1 °C -3.9 °C 1026 hPa SSW 6.4 km/h 11.3 km/h 70% 0 mm 14 W/m2
19:43 0.6 °C -3.9 °C 1026 hPa SSW 3.2 km/h 9.7 km/h 71% 0 mm 7 W/m2
19:58 0.3 °C -3.9 °C 1025.6 hPa SSW 1.6 km/h 12.9 km/h 73% 0 mm 0 W/m2
20:13 -0.1 °C -3.9 °C 1025.3 hPa SSW 3.2 km/h 9.7 km/h 75% 0 mm 0 W/m2
20:28 -0.2 °C -3.9 °C 1024.9 hPa SSW 3.2 km/h 8 km/h 75% 0 mm 0 W/m2
20:43 -0.4 °C -4.4 °C 1024.9 hPa Calm   8 km/h 76% 0 mm 0 W/m2
20:58 -0.6 °C -3.9 °C 1024.6 hPa SSW 4.8 km/h 6.4 km/h 77% 0 mm 0 W/m2
21:13 -0.7 °C -4.4 °C 1024.3 hPa SSW 1.6 km/h 8 km/h 76% 0 mm 0 W/m2
21:28 -0.8 °C -4.4 °C 1024.3 hPa South 4.8 km/h 8 km/h 76% 0 mm 0 W/m2
21:43 -0.9 °C -4.4 °C 1024.3 hPa South 4.8 km/h 8 km/h 77% 0 mm 0 W/m2
21:58 -0.9 °C -4.4 °C 1023.9 hPa South 6.4 km/h 9.7 km/h 77% 0 mm 0 W/m2
22:13 -1 °C -4.4 °C 1023.6 hPa South 4.8 km/h 9.7 km/h 78% 0 mm 0 W/m2
22:28 -1.2 °C -4.4 °C 1023.6 hPa South 1.6 km/h 6.4 km/h 78% 0 mm 0 W/m2
22:43 -1.2 °C -4.4 °C 1023.2 hPa South 3.2 km/h 9.7 km/h 79% 0 mm 0 W/m2
22:58 -1.1 °C -3.9 °C 1023.2 hPa South 1.6 km/h 8 km/h 80% 0 mm 0 W/m2
23:13 -1.3 °C -4.4 °C 1022.9 hPa South 1.6 km/h 8 km/h 80% 0 mm 0 W/m2
23:28 -1.4 °C -4.4 °C 1022.6 hPa South 4.8 km/h 6.4 km/h 80% 0 mm 0 W/m2
23:43 -1.2 °C -3.9 °C 1022.6 hPa SSW 9.7 km/h 16.1 km/h 81% 0 mm 0 W/m2
23:58 -1.2 °C -4.4 °C 1021.9 hPa SW 9.7 km/h 14.5 km/h 80% 0 mm 0 W/m2